Time;durP1;ratioP1;P1;durP2;ratioP2;P2;SDS_P1;SDS_P2;PMS_P1;PMS_P2;Temp;Humidity;BMP_temperature;BMP_pressure;BME280_temperature;BME280_humidity;BME280_pressure;Samples;Min_cycle;Max_cycle;Signal;HPM_P1;HPM_P2
2022/12/19 00:01:52;;;;;;;;;;;18.50;37.70;;;;;;5043059;28;19925;-70
2022/12/19 00:04:20;;;;;;;;;;;18.50;37.70;;;;;;5063982;28;19932;-70
2022/12/19 00:06:46;;;;;;;;;;;18.50;37.70;;;;;;5047816;28;19935;-69
2022/12/19 00:09:13;;;;;;;;;;;18.50;37.70;;;;;;5048311;28;20015;-70
2022/12/19 00:11:40;;;;;;;;;;;18.50;37.70;;;;;;5047324;28;19924;-70
2022/12/19 00:14:06;;;;;;;;;;;18.50;37.70;;;;;;5048981;28;19960;-70
2022/12/19 00:16:33;;;;;;;;;;;18.50;37.70;;;;;;5050963;28;19924;-70
2022/12/19 00:19:01;;;;;;;;;;;18.50;37.70;;;;;;5047422;28;19951;-71
2022/12/19 00:21:29;;;;;;;;;;;18.50;37.60;;;;;;5065363;28;20433;-70
2022/12/19 00:23:55;;;;;;;;;;;18.50;37.60;;;;;;5065744;28;19925;-69
2022/12/19 00:26:22;;;;;;;;;;;18.50;37.60;;;;;;5045472;28;20388;-70
2022/12/19 00:28:49;;;;;;;;;;;18.50;37.60;;;;;;5042493;28;19960;-70
2022/12/19 00:31:16;;;;;;;;;;;18.50;37.60;;;;;;5033600;28;20320;-69
2022/12/19 00:33:43;;;;;;;;;;;18.50;37.60;;;;;;5062661;28;19921;-69
2022/12/19 00:36:12;;;;;;;;;;;18.50;37.60;;;;;;5037618;28;19925;-70
2022/12/19 00:38:38;;;;;;;;;;;18.50;37.60;;;;;;5052251;28;20022;-70
2022/12/19 00:41:08;;;;;;;;;;;18.50;37.60;;;;;;5048883;28;19936;-70
2022/12/19 00:43:35;;;;;;;;;;;18.50;37.60;;;;;;5047936;28;19925;-70
2022/12/19 00:46:02;;;;;;;;;;;18.50;37.60;;;;;;5069397;28;19929;-70
2022/12/19 00:48:29;;;;;;;;;;;18.50;37.60;;;;;;5064156;28;19925;-71
2022/12/19 00:50:58;;;;;;;;;;;18.50;37.60;;;;;;5051153;28;19932;-70
2022/12/19 00:53:27;;;;;;;;;;;18.50;37.60;;;;;;5057730;28;19929;-70
2022/12/19 00:55:53;;;;;;;;;;;18.50;37.50;;;;;;5068986;28;19987;-70
2022/12/19 00:58:20;;;;;;;;;;;18.50;37.60;;;;;;5050057;28;19957;-70
2022/12/19 01:00:47;;;;;;;;;;;18.50;37.50;;;;;;5067258;28;19936;-69
2022/12/19 01:03:14;;;;;;;;;;;18.50;37.50;;;;;;5049232;28;19928;-69
2022/12/19 01:05:40;;;;;;;;;;;18.50;37.50;;;;;;5068091;28;19925;-69
2022/12/19 01:08:07;;;;;;;;;;;18.50;37.50;;;;;;5063819;28;20313;-68
2022/12/19 01:10:35;;;;;;;;;;;18.50;37.50;;;;;;5046220;28;19959;-69
2022/12/19 01:13:01;;;;;;;;;;;18.40;37.50;;;;;;5052066;28;19944;-69
2022/12/19 01:15:28;;;;;;;;;;;18.50;37.50;;;;;;5057224;28;19926;-69
2022/12/19 01:17:55;;;;;;;;;;;18.50;37.50;;;;;;5062061;28;19975;-68
2022/12/19 01:20:21;;;;;;;;;;;18.50;37.50;;;;;;5067879;28;19964;-68
2022/12/19 01:22:48;;;;;;;;;;;18.40;37.40;;;;;;5052871;28;19929;-68
2022/12/19 01:25:15;;;;;;;;;;;18.40;37.40;;;;;;5050013;28;19929;-70
2022/12/19 01:27:43;;;;;;;;;;;18.40;37.40;;;;;;5041034;28;20148;-68
2022/12/19 01:30:10;;;;;;;;;;;18.40;37.40;;;;;;5062228;28;19928;-68
2022/12/19 01:32:37;;;;;;;;;;;18.50;37.50;;;;;;5068178;28;19975;-69
2022/12/19 01:35:04;;;;;;;;;;;18.40;37.40;;;;;;5068226;28;20607;-69
2022/12/19 01:37:31;;;;;;;;;;;18.40;37.30;;;;;;5053695;28;19925;-69
2022/12/19 01:39:58;;;;;;;;;;;18.40;37.30;;;;;;5046848;28;19925;-70
2022/12/19 01:42:25;;;;;;;;;;;18.40;37.40;;;;;;5068083;28;19932;-69
2022/12/19 01:45:02;;;;;;;;;;;18.40;37.30;;;;;;5048215;28;19932;-70
2022/12/19 01:47:28;;;;;;;;;;;18.40;37.30;;;;;;5051436;28;19925;-69
2022/12/19 01:49:55;;;;;;;;;;;18.40;37.30;;;;;;5068006;28;19931;-69
2022/12/19 01:52:22;;;;;;;;;;;18.40;37.30;;;;;;5052368;28;19929;-69
2022/12/19 01:54:49;;;;;;;;;;;18.40;37.30;;;;;;5051925;28;19928;-68
2022/12/19 01:57:15;;;;;;;;;;;18.40;37.30;;;;;;5050126;28;19929;-67
2022/12/19 01:59:43;;;;;;;;;;;18.40;37.30;;;;;;5067795;28;19925;-69
2022/12/19 02:02:13;;;;;;;;;;;18.40;37.30;;;;;;5067889;28;19931;-68
2022/12/19 02:04:40;;;;;;;;;;;18.40;37.20;;;;;;5052977;28;20310;-70
2022/12/19 02:07:07;;;;;;;;;;;18.40;37.20;;;;;;5064554;28;19931;-68
2022/12/19 02:09:33;;;;;;;;;;;18.40;37.20;;;;;;5050923;28;19994;-69
2022/12/19 02:12:00;;;;;;;;;;;18.40;37.30;;;;;;5051079;28;19929;-69
2022/12/19 02:14:27;;;;;;;;;;;18.40;37.20;;;;;;5047146;28;19925;-69
2022/12/19 02:16:54;;;;;;;;;;;18.40;37.20;;;;;;5067003;28;19924;-69
2022/12/19 02:19:30;;;;;;;;;;;18.40;37.20;;;;;;5046744;28;19972;-69
2022/12/19 02:21:57;;;;;;;;;;;18.40;37.20;;;;;;5051423;28;19943;-68
2022/12/19 02:24:38;;;;;;;;;;;18.40;37.20;;;;;;5044219;28;19960;-68
2022/12/19 02:27:07;;;;;;;;;;;18.40;37.20;;;;;;5065014;28;19931;-69
2022/12/19 02:29:39;;;;;;;;;;;18.40;37.30;;;;;;5058174;28;20337;-69
2022/12/19 02:32:07;;;;;;;;;;;18.40;37.20;;;;;;5063571;28;19929;-69
2022/12/19 02:34:35;;;;;;;;;;;18.40;37.20;;;;;;5063954;28;19925;-69
2022/12/19 02:37:02;;;;;;;;;;;18.40;37.20;;;;;;5050346;28;19982;-68
2022/12/19 02:39:30;;;;;;;;;;;18.40;37.20;;;;;;5056009;28;19925;-68
2022/12/19 02:41:57;;;;;;;;;;;18.40;37.20;;;;;;5050179;28;19925;-69
2022/12/19 02:44:25;;;;;;;;;;;18.40;37.20;;;;;;5045218;28;20275;-69
2022/12/19 02:46:52;;;;;;;;;;;18.40;37.20;;;;;;5051976;28;19929;-69
2022/12/19 02:49:20;;;;;;;;;;;18.40;37.20;;;;;;5045659;28;19925;-70
2022/12/19 02:51:47;;;;;;;;;;;18.40;37.20;;;;;;5058189;28;19925;-70
2022/12/19 02:54:14;;;;;;;;;;;18.40;37.20;;;;;;5063290;28;19951;-70
2022/12/19 02:56:43;;;;;;;;;;;18.40;37.20;;;;;;5065068;28;20333;-69
2022/12/19 02:59:13;;;;;;;;;;;18.30;37.10;;;;;;5058407;28;20006;-71
2022/12/19 03:01:42;;;;;;;;;;;18.40;37.20;;;;;;5062605;28;19978;-69
2022/12/19 03:04:13;;;;;;;;;;;18.40;37.20;;;;;;5050890;28;19924;-68
2022/12/19 03:06:42;;;;;;;;;;;18.40;37.20;;;;;;5036307;28;19937;-72
2022/12/19 03:09:10;;;;;;;;;;;18.30;37.10;;;;;;5042273;28;19932;-69
2022/12/19 03:11:37;;;;;;;;;;;18.30;37.10;;;;;;5065843;28;19925;-69
2022/12/19 03:14:06;;;;;;;;;;;18.30;37.10;;;;;;5065750;28;19928;-69
2022/12/19 03:16:33;;;;;;;;;;;18.30;37.10;;;;;;5064009;28;19931;-69
2022/12/19 03:19:00;;;;;;;;;;;18.30;37.10;;;;;;5049871;28;20175;-70
2022/12/19 03:21:29;;;;;;;;;;;18.30;37.10;;;;;;5044113;28;19925;-69
2022/12/19 03:23:57;;;;;;;;;;;18.30;37.10;;;;;;5046947;28;19956;-70
2022/12/19 03:26:24;;;;;;;;;;;18.30;37.10;;;;;;5049136;28;19929;-69
2022/12/19 03:28:51;;;;;;;;;;;18.30;37.10;;;;;;5049961;28;19979;-68
2022/12/19 03:31:19;;;;;;;;;;;18.30;37.10;;;;;;5065255;28;19940;-70
2022/12/19 03:33:46;;;;;;;;;;;18.30;37.10;;;;;;5066253;28;20366;-69
2022/12/19 03:36:13;;;;;;;;;;;18.30;37.10;;;;;;5048938;28;19956;-69
2022/12/19 03:38:40;;;;;;;;;;;18.30;37.10;;;;;;5030268;28;20035;-69
2022/12/19 03:41:08;;;;;;;;;;;18.30;37.00;;;;;;5062982;28;20015;-70
2022/12/19 03:43:34;;;;;;;;;;;18.30;37.00;;;;;;5064544;28;19925;-69
2022/12/19 03:46:01;;;;;;;;;;;18.30;37.10;;;;;;5059906;28;19924;-70
2022/12/19 03:48:29;;;;;;;;;;;18.30;37.10;;;;;;5062093;28;20465;-70
2022/12/19 03:50:59;;;;;;;;;;;18.30;37.10;;;;;;5061210;28;19925;-69
2022/12/19 03:53:29;;;;;;;;;;;18.30;37.10;;;;;;5064182;28;19925;-69
2022/12/19 03:55:58;;;;;;;;;;;18.30;37.10;;;;;;5059270;28;19931;-69
2022/12/19 03:58:27;;;;;;;;;;;18.30;37.10;;;;;;5051131;28;19925;-69
2022/12/19 04:00:54;;;;;;;;;;;18.30;37.10;;;;;;5064877;28;19986;-69
2022/12/19 04:03:21;;;;;;;;;;;18.30;37.10;;;;;;5048849;28;19936;-68
2022/12/19 04:05:47;;;;;;;;;;;18.30;37.10;;;;;;5048899;28;19928;-69
2022/12/19 04:08:14;;;;;;;;;;;18.30;37.10;;;;;;5069899;28;19932;-69
2022/12/19 04:10:43;;;;;;;;;;;18.30;37.10;;;;;;5054342;28;19950;-69
2022/12/19 04:13:11;;;;;;;;;;;18.30;37.10;;;;;;5049707;28;19933;-70
2022/12/19 04:15:40;;;;;;;;;;;18.30;37.10;;;;;;5054776;28;19925;-69
2022/12/19 04:18:06;;;;;;;;;;;18.30;37.10;;;;;;5063634;28;20191;-68
2022/12/19 04:20:33;;;;;;;;;;;18.30;37.10;;;;;;5067426;28;19948;-69
2022/12/19 04:23:01;;;;;;;;;;;18.30;37.10;;;;;;5053553;28;19932;-69
2022/12/19 04:25:29;;;;;;;;;;;18.30;37.10;;;;;;5053546;28;19929;-69
2022/12/19 04:27:56;;;;;;;;;;;18.30;37.10;;;;;;5069996;28;19978;-71
2022/12/19 04:30:23;;;;;;;;;;;18.30;37.10;;;;;;5063987;28;19925;-69
2022/12/19 04:32:51;;;;;;;;;;;18.30;37.10;;;;;;5049758;28;19925;-69
2022/12/19 04:35:18;;;;;;;;;;;18.30;37.10;;;;;;5048444;28;19925;-72
2022/12/19 04:37:45;;;;;;;;;;;18.30;37.10;;;;;;5053433;28;19936;-69
2022/12/19 04:40:12;;;;;;;;;;;18.40;37.10;;;;;;5068137;28;20366;-69
2022/12/19 04:42:38;;;;;;;;;;;18.30;37.10;;;;;;5067951;28;19929;-69
2022/12/19 04:45:06;;;;;;;;;;;18.30;37.10;;;;;;5061802;28;19932;-69
2022/12/19 04:47:33;;;;;;;;;;;18.40;37.10;;;;;;5059429;28;19925;-69
2022/12/19 04:50:01;;;;;;;;;;;18.30;37.10;;;;;;5047800;28;19926;-69
2022/12/19 04:52:28;;;;;;;;;;;18.30;37.10;;;;;;5047592;28;20321;-69
2022/12/19 04:54:55;;;;;;;;;;;18.30;37.10;;;;;;5047479;28;19933;-69
2022/12/19 04:57:22;;;;;;;;;;;18.30;37.10;;;;;;5065972;28;19932;-70
2022/12/19 04:59:48;;;;;;;;;;;18.30;37.10;;;;;;5051881;28;19925;-69
2022/12/19 05:02:15;;;;;;;;;;;18.30;37.00;;;;;;5052573;28;20047;-69
2022/12/19 05:04:42;;;;;;;;;;;18.30;37.10;;;;;;5040922;28;19925;-67
2022/12/19 05:07:10;;;;;;;;;;;18.30;37.00;;;;;;5047904;28;19953;-69
2022/12/19 05:09:37;;;;;;;;;;;18.30;37.10;;;;;;5051035;28;19925;-70
2022/12/19 05:12:03;;;;;;;;;;;18.30;37.00;;;;;;5068469;28;19929;-69
2022/12/19 05:14:33;;;;;;;;;;;18.30;37.00;;;;;;5052621;28;19925;-68
2022/12/19 05:17:03;;;;;;;;;;;18.30;37.10;;;;;;5046809;28;19925;-69
2022/12/19 05:19:30;;;;;;;;;;;18.30;37.10;;;;;;5052111;28;19929;-68
2022/12/19 05:21:57;;;;;;;;;;;18.30;37.10;;;;;;5052170;28;19931;-70
2022/12/19 05:24:25;;;;;;;;;;;18.30;37.00;;;;;;5069077;28;20008;-69
2022/12/19 05:26:52;;;;;;;;;;;18.30;37.00;;;;;;5058670;28;19929;-70
2022/12/19 05:29:19;;;;;;;;;;;18.30;37.10;;;;;;5052077;28;20399;-69
2022/12/19 05:31:46;;;;;;;;;;;18.30;37.00;;;;;;5064912;28;20278;-70
2022/12/19 05:34:13;;;;;;;;;;;18.30;37.00;;;;;;5047465;28;19928;-69
2022/12/19 05:36:40;;;;;;;;;;;18.30;37.10;;;;;;5044776;28;19929;-71
2022/12/19 05:39:06;;;;;;;;;;;18.30;37.00;;;;;;5067108;28;20321;-70
2022/12/19 05:41:35;;;;;;;;;;;18.30;37.10;;;;;;5061121;28;19932;-69
2022/12/19 05:44:02;;;;;;;;;;;18.30;37.00;;;;;;5068474;28;19931;-70
2022/12/19 05:46:28;;;;;;;;;;;18.30;37.10;;;;;;5053114;28;20345;-69
2022/12/19 05:48:55;;;;;;;;;;;18.30;37.10;;;;;;5050764;28;19982;-68
2022/12/19 05:51:22;;;;;;;;;;;18.30;37.10;;;;;;5049737;28;19947;-70
2022/12/19 05:53:49;;;;;;;;;;;18.30;37.10;;;;;;5049296;28;19925;-68
2022/12/19 05:56:16;;;;;;;;;;;18.30;37.10;;;;;;5067156;28;19928;-69
2022/12/19 05:58:44;;;;;;;;;;;18.30;37.10;;;;;;5068236;28;19964;-70
2022/12/19 06:01:12;;;;;;;;;;;18.30;37.10;;;;;;5056174;28;19971;-69
2022/12/19 06:03:38;;;;;;;;;;;18.30;37.10;;;;;;5060550;28;19925;-70
2022/12/19 06:06:06;;;;;;;;;;;18.30;37.10;;;;;;5050839;28;19948;-68
2022/12/19 06:08:33;;;;;;;;;;;18.30;37.10;;;;;;5066250;28;19947;-70
2022/12/19 06:11:00;;;;;;;;;;;18.30;37.10;;;;;;5052540;28;19925;-70
2022/12/19 06:13:26;;;;;;;;;;;18.30;37.10;;;;;;5051482;28;19932;-70
2022/12/19 06:15:58;;;;;;;;;;;18.30;37.10;;;;;;5045767;28;19925;-69
2022/12/19 06:18:25;;;;;;;;;;;18.30;37.10;;;;;;5067419;28;19929;-70
2022/12/19 06:20:56;;;;;;;;;;;18.30;37.10;;;;;;5065295;28;20021;-68
2022/12/19 06:23:24;;;;;;;;;;;18.30;37.10;;;;;;5067573;28;19928;-69
2022/12/19 06:25:51;;;;;;;;;;;18.30;37.10;;;;;;5049922;28;19975;-68
2022/12/19 06:28:18;;;;;;;;;;;18.30;37.10;;;;;;5057036;28;20429;-69
2022/12/19 06:30:45;;;;;;;;;;;18.30;37.10;;;;;;5063092;28;19924;-69
2022/12/19 06:33:13;;;;;;;;;;;18.30;37.10;;;;;;5062642;28;19929;-68
2022/12/19 06:35:40;;;;;;;;;;;18.30;37.10;;;;;;5064277;28;19925;-70
2022/12/19 06:38:07;;;;;;;;;;;18.30;37.10;;;;;;5066294;28;19995;-70
2022/12/19 06:43:19;;;;;;;;;;;18.30;37.20;;;;;;5043811;28;19932;-70
2022/12/19 06:45:45;;;;;;;;;;;18.30;37.10;;;;;;5046827;28;19973;-68
2022/12/19 06:48:14;;;;;;;;;;;18.30;37.10;;;;;;5051840;28;19936;-69
2022/12/19 06:50:41;;;;;;;;;;;18.30;37.10;;;;;;5061997;28;19955;-68
2022/12/19 06:53:08;;;;;;;;;;;18.30;37.20;;;;;;5062223;28;19934;-69
2022/12/19 06:55:35;;;;;;;;;;;18.30;37.10;;;;;;5066930;28;19971;-70
2022/12/19 06:58:02;;;;;;;;;;;18.30;37.10;;;;;;5066008;28;19932;-70
2022/12/19 07:00:29;;;;;;;;;;;18.30;37.10;;;;;;5048162;28;19978;-69
2022/12/19 07:02:56;;;;;;;;;;;18.30;37.10;;;;;;5050429;28;19932;-69
2022/12/19 07:05:24;;;;;;;;;;;18.30;37.10;;;;;;5050676;28;19934;-69
2022/12/19 07:07:50;;;;;;;;;;;18.30;37.20;;;;;;5050389;28;20367;-69
2022/12/19 07:10:17;;;;;;;;;;;18.30;37.10;;;;;;5050626;28;19956;-69
2022/12/19 07:12:44;;;;;;;;;;;18.30;37.10;;;;;;5062317;28;20143;-70
2022/12/19 07:15:11;;;;;;;;;;;18.30;37.10;;;;;;5042584;28;19925;-68
2022/12/19 07:17:38;;;;;;;;;;;18.30;37.20;;;;;;5064304;28;20015;-69
2022/12/19 07:20:05;;;;;;;;;;;18.30;37.20;;;;;;5050577;28;19925;-72
2022/12/19 07:22:34;;;;;;;;;;;18.30;37.20;;;;;;5066296;28;19967;-69
2022/12/19 07:25:01;;;;;;;;;;;18.30;37.20;;;;;;5051873;28;19979;-69
2022/12/19 07:27:28;;;;;;;;;;;18.30;37.20;;;;;;5050697;28;19925;-70
2022/12/19 07:29:54;;;;;;;;;;;18.30;37.20;;;;;;5047906;28;20012;-72
2022/12/19 07:32:21;;;;;;;;;;;18.30;37.20;;;;;;5044223;28;19939;-69
2022/12/19 07:34:48;;;;;;;;;;;18.30;37.20;;;;;;5050064;28;19933;-69
2022/12/19 07:37:15;;;;;;;;;;;18.30;37.20;;;;;;5045726;28;19925;-68
2022/12/19 07:39:43;;;;;;;;;;;18.30;37.30;;;;;;5063156;28;19978;-69
2022/12/19 07:42:10;;;;;;;;;;;18.30;37.20;;;;;;5061207;28;19928;-68
2022/12/19 07:44:36;;;;;;;;;;;18.30;37.30;;;;;;5053392;28;19928;-69
2022/12/19 07:47:03;;;;;;;;;;;18.30;37.30;;;;;;5050259;28;19924;-68
2022/12/19 07:49:30;;;;;;;;;;;18.30;37.30;;;;;;5048069;28;19929;-68
2022/12/19 07:51:56;;;;;;;;;;;18.30;37.30;;;;;;5046005;28;20012;-68
2022/12/19 07:54:23;;;;;;;;;;;18.30;37.30;;;;;;5052227;28;19925;-68
2022/12/19 07:56:51;;;;;;;;;;;18.30;37.30;;;;;;5052265;28;19925;-68
2022/12/19 07:59:18;;;;;;;;;;;18.30;37.30;;;;;;5045119;28;19977;-69
2022/12/19 08:01:45;;;;;;;;;;;18.30;37.30;;;;;;5070714;28;19925;-70
2022/12/19 08:04:13;;;;;;;;;;;18.30;37.30;;;;;;5067283;28;19925;-70
2022/12/19 08:06:39;;;;;;;;;;;18.30;37.30;;;;;;5053151;28;19931;-69
2022/12/19 08:09:06;;;;;;;;;;;18.30;37.40;;;;;;5070065;28;19929;-69
2022/12/19 08:11:33;;;;;;;;;;;18.30;37.40;;;;;;5049527;28;19937;-69
2022/12/19 08:14:01;;;;;;;;;;;18.30;37.40;;;;;;5060601;28;19970;-69
2022/12/19 08:16:28;;;;;;;;;;;18.30;37.40;;;;;;5054358;28;19925;-70
2022/12/19 08:18:55;;;;;;;;;;;18.30;37.40;;;;;;5069431;28;19924;-69
2022/12/19 08:21:22;;;;;;;;;;;18.30;37.50;;;;;;5065743;28;19935;-69
2022/12/19 08:23:49;;;;;;;;;;;18.30;37.50;;;;;;5046668;28;19983;-69
2022/12/19 08:26:18;;;;;;;;;;;18.30;37.50;;;;;;5064278;28;19925;-72
2022/12/19 08:28:46;;;;;;;;;;;18.40;37.60;;;;;;5044983;28;19998;-69
2022/12/19 08:31:15;;;;;;;;;;;18.40;37.70;;;;;;5051769;28;19936;-70
2022/12/19 08:33:42;;;;;;;;;;;18.40;37.70;;;;;;5066537;28;20299;-69
2022/12/19 08:36:09;;;;;;;;;;;18.40;37.70;;;;;;5053212;28;19991;-70
2022/12/19 08:38:36;;;;;;;;;;;18.40;37.70;;;;;;5059793;28;19925;-68
2022/12/19 08:41:03;;;;;;;;;;;18.40;37.70;;;;;;5062182;28;19925;-68
2022/12/19 08:43:30;;;;;;;;;;;18.50;37.90;;;;;;5064322;28;20394;-68
2022/12/19 08:45:57;;;;;;;;;;;18.50;37.90;;;;;;5051580;28;19939;-68
2022/12/19 08:48:25;;;;;;;;;;;18.50;37.90;;;;;;5063909;28;19925;-68
2022/12/19 08:50:52;;;;;;;;;;;18.50;37.90;;;;;;5066487;28;19929;-72
2022/12/19 08:53:19;;;;;;;;;;;18.50;37.90;;;;;;5062294;28;19928;-71
2022/12/19 08:55:46;;;;;;;;;;;18.50;37.90;;;;;;5044139;28;19925;-69
2022/12/19 08:58:13;;;;;;;;;;;18.60;38.00;;;;;;5058912;28;19979;-69
2022/12/19 09:00:39;;;;;;;;;;;18.60;38.00;;;;;;5050195;28;19925;-69
2022/12/19 09:03:07;;;;;;;;;;;18.60;38.00;;;;;;5050628;28;19986;-69
2022/12/19 09:05:35;;;;;;;;;;;18.60;38.00;;;;;;5037010;28;19975;-68
2022/12/19 09:08:02;;;;;;;;;;;18.60;38.00;;;;;;5052665;28;19975;-69
2022/12/19 09:10:29;;;;;;;;;;;18.70;38.10;;;;;;5049619;28;19931;-69
2022/12/19 09:12:55;;;;;;;;;;;18.70;38.70;;;;;;5048449;28;20432;-70
2022/12/19 09:15:22;;;;;;;;;;;18.70;38.10;;;;;;5065123;28;19928;-69
2022/12/19 09:17:49;;;;;;;;;;;18.70;38.10;;;;;;5065979;28;21311;-67
2022/12/19 09:20:16;;;;;;;;;;;18.70;38.10;;;;;;5050787;28;19928;-68
2022/12/19 09:22:44;;;;;;;;;;;18.70;38.10;;;;;;5048191;28;19929;-67
2022/12/19 09:25:11;;;;;;;;;;;18.70;38.10;;;;;;5048252;28;19928;-68
2022/12/19 09:27:38;;;;;;;;;;;18.70;38.10;;;;;;5042880;28;19935;-68
2022/12/19 09:30:05;;;;;;;;;;;18.70;38.20;;;;;;5064110;28;19986;-68
2022/12/19 09:32:32;;;;;;;;;;;18.70;38.10;;;;;;5067096;28;19933;-68
2022/12/19 09:34:58;;;;;;;;;;;18.70;38.10;;;;;;5043731;28;19933;-68
2022/12/19 09:37:25;;;;;;;;;;;18.70;38.10;;;;;;5061983;28;19979;-68
2022/12/19 09:39:53;;;;;;;;;;;18.70;38.20;;;;;;5049387;28;20469;-68
2022/12/19 09:42:30;;;;;;;;;;;18.80;38.30;;;;;;5052357;28;20020;-67
2022/12/19 09:45:02;;;;;;;;;;;18.80;38.30;;;;;;5047816;28;20060;-69
2022/12/19 09:47:30;;;;;;;;;;;18.80;38.30;;;;;;5066430;28;19939;-68
2022/12/19 09:49:56;;;;;;;;;;;18.80;38.40;;;;;;5048628;28;19925;-68
2022/12/19 09:52:25;;;;;;;;;;;18.80;38.40;;;;;;5042475;28;19972;-65
2022/12/19 09:54:53;;;;;;;;;;;18.80;38.40;;;;;;5067867;28;20404;-68
2022/12/19 09:57:29;;;;;;;;;;;18.80;38.30;;;;;;5067363;28;19925;-66
2022/12/19 09:59:56;;;;;;;;;;;18.80;38.40;;;;;;5061196;28;20296;-65
2022/12/19 10:02:29;;;;;;;;;;;18.80;38.40;;;;;;5042628;28;19936;-67
2022/12/19 10:04:57;;;;;;;;;;;18.80;38.40;;;;;;5062357;28;19940;-68
2022/12/19 10:07:24;;;;;;;;;;;18.80;38.40;;;;;;5060877;28;19925;-66
2022/12/19 10:09:50;;;;;;;;;;;18.80;38.40;;;;;;5047542;28;19931;-67
2022/12/19 10:12:21;;;;;;;;;;;18.80;38.50;;;;;;5067930;28;19925;-67
2022/12/19 10:14:53;;;;;;;;;;;18.80;38.40;;;;;;5061479;28;19951;-68
2022/12/19 10:17:22;;;;;;;;;;;18.80;38.50;;;;;;5045683;28;19932;-67
2022/12/19 10:19:52;;;;;;;;;;;18.90;38.50;;;;;;5045990;28;20046;-67
2022/12/19 10:22:21;;;;;;;;;;;18.90;38.50;;;;;;5048966;28;19937;-67
2022/12/19 10:25:03;;;;;;;;;;;18.90;38.60;;;;;;5063376;28;19929;-69
2022/12/19 10:27:32;;;;;;;;;;;18.90;38.50;;;;;;5055640;28;19925;-68
2022/12/19 10:30:01;;;;;;;;;;;18.90;38.50;;;;;;5050240;28;19979;-67
2022/12/19 10:32:30;;;;;;;;;;;18.90;38.50;;;;;;5047737;28;20267;-68
2022/12/19 10:34:56;;;;;;;;;;;18.90;38.50;;;;;;5050220;28;19975;-67
2022/12/19 10:37:24;;;;;;;;;;;18.90;38.60;;;;;;5061425;28;19933;-67
2022/12/19 10:39:54;;;;;;;;;;;18.90;38.50;;;;;;5049856;28;19932;-67
2022/12/19 10:42:25;;;;;;;;;;;18.90;38.50;;;;;;5049414;28;19994;-68
2022/12/19 10:44:53;;;;;;;;;;;19.00;38.60;;;;;;5055131;28;19928;-66
2022/12/19 10:47:20;;;;;;;;;;;19.00;38.60;;;;;;5060421;28;20006;-67
2022/12/19 10:49:48;;;;;;;;;;;19.00;38.60;;;;;;5042891;28;19933;-66
2022/12/19 10:52:14;;;;;;;;;;;19.00;38.70;;;;;;5051371;28;19932;-68
2022/12/19 10:54:42;;;;;;;;;;;19.00;38.70;;;;;;5049524;28;20247;-67
2022/12/19 10:57:24;;;;;;;;;;;19.00;38.60;;;;;;5045593;28;19932;-68
2022/12/19 10:59:56;;;;;;;;;;;19.00;38.70;;;;;;5061387;28;19987;-66
2022/12/19 11:02:27;;;;;;;;;;;19.00;38.70;;;;;;5021250;28;20003;-67
2022/12/19 11:04:53;;;;;;;;;;;19.00;38.70;;;;;;5069174;28;19924;-66
2022/12/19 11:07:21;;;;;;;;;;;19.00;38.70;;;;;;5041074;28;19937;-67
2022/12/19 11:09:47;;;;;;;;;;;19.00;38.70;;;;;;5046301;28;19932;-68
2022/12/19 11:12:15;;;;;;;;;;;19.00;38.70;;;;;;5046740;28;19924;-67
2022/12/19 11:14:42;;;;;;;;;;;19.00;38.70;;;;;;5039315;28;19925;-66
2022/12/19 11:17:26;;;;;;;;;;;19.00;38.70;;;;;;5051887;28;20055;-65
2022/12/19 11:19:53;;;;;;;;;;;19.00;38.70;;;;;;5038868;28;19925;-66
2022/12/19 11:22:21;;;;;;;;;;;19.00;38.70;;;;;;5065531;28;19925;-66
2022/12/19 11:24:49;;;;;;;;;;;19.00;38.70;;;;;;5046936;28;19939;-66
2022/12/19 11:27:29;;;;;;;;;;;19.00;38.70;;;;;;5061499;28;20287;-67
2022/12/19 11:29:56;;;;;;;;;;;19.00;38.70;;;;;;5062205;28;19978;-65
2022/12/19 11:32:25;;;;;;;;;;;19.00;38.70;;;;;;5066402;28;20271;-64
2022/12/19 11:34:55;;;;;;;;;;;19.00;38.70;;;;;;5050752;28;19928;-67
2022/12/19 11:37:23;;;;;;;;;;;19.00;38.70;;;;;;5064826;28;19972;-66
2022/12/19 11:39:51;;;;;;;;;;;19.00;38.70;;;;;;5055998;28;20389;-65
2022/12/19 11:42:21;;;;;;;;;;;19.10;38.90;;;;;;5051015;28;19925;-66
2022/12/19 11:44:48;;;;;;;;;;;19.00;38.80;;;;;;5058918;28;19933;-66
2022/12/19 11:47:18;;;;;;;;;;;19.00;38.80;;;;;;5046013;28;19924;-64
2022/12/19 11:49:46;;;;;;;;;;;19.00;38.80;;;;;;5046351;28;19925;-67
2022/12/19 11:52:16;;;;;;;;;;;19.00;38.80;;;;;;5044954;28;19936;-65
2022/12/19 11:54:46;;;;;;;;;;;19.00;38.80;;;;;;5051093;28;19925;-66
2022/12/19 11:57:12;;;;;;;;;;;19.10;38.90;;;;;;5049573;28;19949;-65
2022/12/19 11:59:39;;;;;;;;;;;19.00;38.80;;;;;;5063986;28;20386;-66
2022/12/19 12:02:18;;;;;;;;;;;19.00;39.40;;;;;;5048841;28;19968;-66
2022/12/19 12:05:03;;;;;;;;;;;19.00;38.90;;;;;;5049681;28;19924;-65
2022/12/19 12:07:32;;;;;;;;;;;19.00;38.90;;;;;;5047011;28;19994;-65
2022/12/19 12:10:00;;;;;;;;;;;19.00;38.90;;;;;;5046057;28;20318;-66
2022/12/19 12:12:27;;;;;;;;;;;19.00;38.90;;;;;;5044630;28;19924;-65
2022/12/19 12:15:02;;;;;;;;;;;19.00;38.90;;;;;;5054768;28;19979;-65
2022/12/19 12:17:31;;;;;;;;;;;19.00;38.90;;;;;;5048779;28;19925;-65
2022/12/19 12:20:03;;;;;;;;;;;19.00;39.00;;;;;;5049155;28;19924;-65
2022/12/19 12:22:48;;;;;;;;;;;19.00;38.90;;;;;;5040260;28;19934;-66
2022/12/19 12:25:19;;;;;;;;;;;19.00;38.90;;;;;;5048328;28;19970;-65
2022/12/19 12:27:48;;;;;;;;;;;19.00;39.00;;;;;;5064041;28;20007;-64
2022/12/19 12:30:16;;;;;;;;;;;19.00;39.00;;;;;;5045883;28;19925;-64
2022/12/19 12:32:49;;;;;;;;;;;19.00;39.00;;;;;;5045925;28;19925;-68
2022/12/19 12:35:18;;;;;;;;;;;19.00;39.00;;;;;;5065984;28;19925;-67
2022/12/19 12:37:48;;;;;;;;;;;19.00;39.10;;;;;;5052819;28;19925;-68
2022/12/19 12:40:20;;;;;;;;;;;19.00;39.20;;;;;;5066900;28;20019;-66
2022/12/19 12:42:49;;;;;;;;;;;19.00;39.20;;;;;;5050894;28;20350;-66
2022/12/19 12:45:20;;;;;;;;;;;19.00;39.30;;;;;;5047051;28;19929;-67
2022/12/19 12:47:49;;;;;;;;;;;19.00;39.30;;;;;;5051549;28;19972;-67
2022/12/19 12:50:16;;;;;;;;;;;19.00;39.40;;;;;;5050290;28;19940;-67
2022/12/19 12:52:44;;;;;;;;;;;19.00;39.40;;;;;;5052154;28;20027;-68
2022/12/19 12:55:14;;;;;;;;;;;19.00;39.50;;;;;;5062797;28;19987;-67
2022/12/19 12:57:41;;;;;;;;;;;19.00;39.60;;;;;;5044171;28;19983;-67
2022/12/19 13:00:15;;;;;;;;;;;19.10;39.80;;;;;;5063612;28;20006;-66
2022/12/19 13:02:42;;;;;;;;;;;19.10;39.90;;;;;;5062474;28;19929;-69
2022/12/19 13:05:15;;;;;;;;;;;19.10;39.90;;;;;;5062898;28;19929;-67
2022/12/19 13:07:42;;;;;;;;;;;19.10;40.00;;;;;;5062243;28;19933;-68
2022/12/19 13:10:18;;;;;;;;;;;19.10;40.00;;;;;;5051127;28;20014;-68
2022/12/19 13:13:00;;;;;;;;;;;19.10;40.00;;;;;;5046745;28;20363;-67
2022/12/19 13:15:33;;;;;;;;;;;19.10;40.10;;;;;;5024204;28;20016;-69
2022/12/19 13:18:00;;;;;;;;;;;19.10;40.10;;;;;;5047740;28;20375;-66
2022/12/19 13:20:40;;;;;;;;;;;19.10;40.20;;;;;;5059888;28;19978;-68
2022/12/19 13:23:19;;;;;;;;;;;19.10;40.30;;;;;;5061283;28;19971;-68
2022/12/19 13:26:03;;;;;;;;;;;19.10;40.30;;;;;;5047647;28;20433;-65
2022/12/19 13:28:40;;;;;;;;;;;19.10;40.30;;;;;;5050881;28;19925;-66
2022/12/19 13:31:19;;;;;;;;;;;19.10;40.30;;;;;;5056045;28;19998;-66
2022/12/19 13:33:47;;;;;;;;;;;19.10;40.30;;;;;;5059359;28;19936;-66
2022/12/19 13:36:33;;;;;;;;;;;19.10;40.30;;;;;;5037681;28;19960;-67
2022/12/19 13:39:00;;;;;;;;;;;19.10;40.30;;;;;;5062602;28;20341;-64
2022/12/19 13:44:13;;;;;;;;;;;19.10;40.50;;;;;;5045474;28;19925;-65
2022/12/19 13:46:40;;;;;;;;;;;19.10;40.50;;;;;;5043972;28;19995;-65
2022/12/19 13:49:08;;;;;;;;;;;19.10;40.50;;;;;;5041756;28;19932;-67
2022/12/19 13:51:48;;;;;;;;;;;19.10;40.50;;;;;;5046472;28;19924;-66
2022/12/19 13:54:18;;;;;;;;;;;19.10;40.60;;;;;;5062047;28;19936;-67
2022/12/19 13:56:46;;;;;;;;;;;19.10;40.50;;;;;;5058689;28;19960;-67
2022/12/19 13:59:13;;;;;;;;;;;19.20;40.60;;;;;;5047831;28;20433;-66
2022/12/19 14:01:40;;;;;;;;;;;19.20;40.80;;;;;;5045318;28;19975;-67
2022/12/19 14:04:08;;;;;;;;;;;19.20;40.80;;;;;;5042864;28;19947;-68
2022/12/19 14:06:39;;;;;;;;;;;19.20;40.90;;;;;;5043245;28;19924;-66
2022/12/19 14:09:06;;;;;;;;;;;19.20;41.00;;;;;;5061763;28;20422;-67
2022/12/19 14:11:33;;;;;;;;;;;19.20;41.00;;;;;;5028592;28;19968;-66
2022/12/19 14:16:45;;;;;;;;;;;19.30;41.20;;;;;;5045965;28;19943;-66
2022/12/19 14:19:19;;;;;;;;;;;19.30;41.20;;;;;;5043702;28;19964;-67
2022/12/19 14:21:46;;;;;;;;;;;19.30;41.20;;;;;;5042382;28;20551;-67
2022/12/19 14:24:15;;;;;;;;;;;19.30;41.30;;;;;;5039003;28;19936;-67
2022/12/19 14:26:43;;;;;;;;;;;19.30;41.30;;;;;;5061693;28;19936;-67
2022/12/19 14:29:12;;;;;;;;;;;19.30;41.30;;;;;;5054071;28;19964;-66
2022/12/19 14:31:39;;;;;;;;;;;19.40;41.40;;;;;;5037060;28;19939;-67